Time;durP1;ratioP1;P1;durP2;ratioP2;P2;SDS_P1;SDS_P2;PMS_P1;PMS_P2;Temp;Humidity;BMP_temperature;BMP_pressure;BME280_temperature;BME280_humidity;BME280_pressure;Samples;Min_cycle;Max_cycle;Signal;HPM_P1;HPM_P2
2022/04/11 00:02:08;;;;;;;3.30;1.27;;;2.80;99.90;;;;;;4975132;28;19909;-88
2022/04/11 00:04:34;;;;;;;;;;;2.80;99.90;;;;;;4958643;28;20031;-85
2022/04/11 00:06:59;;;;;;;4.20;1.13;;;2.80;99.90;;;;;;4958415;28;19906;-87
2022/04/11 00:09:25;;;;;;;;;;;2.80;99.90;;;;;;4958515;28;20023;-86
2022/04/11 00:11:51;;;;;;;2.22;0.80;;;2.80;99.90;;;;;;4957863;28;19913;-86
2022/04/11 00:14:17;;;;;;;4.85;0.90;;;2.80;99.90;;;;;;4958519;28;20030;-86
2022/04/11 00:16:42;;;;;;;4.18;0.98;;;2.80;99.90;;;;;;4958331;28;20038;-86
2022/04/11 00:19:11;;;;;;;;;;;2.80;99.90;;;;;;4957766;28;20481;-86
2022/04/11 00:21:36;;;;;;;5.75;2.72;;;2.70;99.90;;;;;;4957824;28;19906;-85
2022/04/11 00:24:02;;;;;;;;;;;2.70;99.90;;;;;;4975580;28;20085;-86
2022/04/11 00:26:28;;;;;;;7.18;2.40;;;2.70;99.90;;;;;;4957967;28;19906;-86
2022/04/11 00:28:53;;;;;;;;;;;2.70;99.90;;;;;;4958285;28;20026;-86
2022/04/11 00:31:19;;;;;;;5.70;2.03;;;2.70;99.90;;;;;;4958040;28;20362;-86
2022/04/11 00:33:45;;;;;;;;;;;2.70;99.90;;;;;;4957961;28;20023;-86
2022/04/11 00:36:11;;;;;;;5.85;2.10;;;2.70;99.90;;;;;;4957658;28;19906;-86
2022/04/11 00:38:37;;;;;;;5.88;2.17;;;2.70;99.90;;;;;;4974500;28;20538;-86
2022/04/11 00:41:02;;;;;;;;;;;2.80;99.90;;;;;;4958107;28;20027;-86
2022/04/11 00:43:39;;;;;;;7.63;2.50;;;2.80;99.90;;;;;;4957380;28;19918;-85
2022/04/11 00:46:07;;;;;;;4.70;1.80;;;2.80;99.90;;;;;;4957651;28;20486;-86
2022/04/11 00:48:33;;;;;;;7.10;1.85;;;2.80;99.90;;;;;;4974713;28;20388;-85
2022/04/11 00:51:05;;;;;;;3.60;1.50;;;2.90;99.90;;;;;;4957608;28;20027;-86
2022/04/11 00:53:32;;;;;;;3.85;1.67;;;2.90;99.90;;;;;;4957471;28;20045;-86
2022/04/11 00:55:59;;;;;;;5.95;2.10;;;2.90;99.90;;;;;;4989529;28;20131;-86
2022/04/11 00:58:25;;;;;;;5.45;1.80;;;3.00;99.90;;;;;;4955924;28;20134;-86
2022/04/11 01:00:51;;;;;;;3.25;1.27;;;3.00;99.90;;;;;;4956947;28;20031;-86
2022/04/11 01:03:17;;;;;;;;;;;3.00;99.90;;;;;;4957258;28;20031;-85
2022/04/11 01:05:42;;;;;;;2.72;1.17;;;3.00;99.90;;;;;;4957185;28;19914;-87
2022/04/11 01:08:09;;;;;;;;;;;2.90;99.90;;;;;;4974752;28;20030;-84
2022/04/11 01:10:35;;;;;;;4.68;0.88;;;2.90;99.90;;;;;;4957103;28;19909;-85
2022/04/11 01:13:01;;;;;;;;;;;2.90;99.90;;;;;;4957540;28;20050;-86
2022/04/11 01:15:27;;;;;;;5.37;1.07;;;2.90;99.90;;;;;;4957364;28;20271;-86
2022/04/11 01:17:53;;;;;;;;;;;2.90;99.90;;;;;;4957455;28;20030;-86
2022/04/11 01:20:22;;;;;;;3.38;1.10;;;2.80;99.90;;;;;;4957248;28;19905;-85
2022/04/11 01:22:48;;;;;;;4.88;1.10;;;2.80;99.90;;;;;;4959985;28;20035;-86
2022/04/11 01:25:15;;;;;;;2.28;0.93;;;2.80;99.90;;;;;;4974144;28;20027;-86
2022/04/11 01:27:41;;;;;;;3.28;0.88;;;2.80;99.90;;;;;;4974242;28;20395;-85
2022/04/11 01:30:10;;;;;;;1.52;0.65;;;2.80;99.90;;;;;;4956651;28;20443;-85
2022/04/11 01:32:37;;;;;;;2.38;0.68;;;2.70;99.90;;;;;;4974034;28;20030;-85
2022/04/11 01:35:03;;;;;;;4.50;0.88;;;2.70;99.90;;;;;;4974085;28;20027;-85
2022/04/11 01:37:29;;;;;;;2.35;0.68;;;2.70;99.90;;;;;;4956995;28;20031;-86
2022/04/11 01:39:54;;;;;;;;;;;2.70;99.90;;;;;;4957273;28;20031;-85
2022/04/11 01:42:20;;;;;;;2.35;0.60;;;2.70;99.90;;;;;;4974182;28;19906;-85
2022/04/11 01:44:46;;;;;;;1.83;0.70;;;2.70;99.90;;;;;;4956794;28;20053;-86
2022/04/11 01:47:12;;;;;;;2.72;0.90;;;2.60;99.90;;;;;;4973225;28;20503;-85
2022/04/11 01:49:38;;;;;;;2.10;0.57;;;2.60;99.90;;;;;;4975811;28;20030;-86
2022/04/11 01:52:04;;;;;;;;;;;2.60;99.90;;;;;;4976317;28;20038;-85
2022/04/11 01:54:30;;;;;;;4.15;0.80;;;2.60;99.90;;;;;;4976160;28;20373;-86
2022/04/11 01:56:56;;;;;;;1.67;0.70;;;2.60;99.90;;;;;;4976189;28;20128;-86
2022/04/11 01:59:22;;;;;;;;;;;2.60;99.90;;;;;;4992463;28;20086;-86
2022/04/11 02:01:47;;;;;;;3.25;0.70;;;2.70;99.90;;;;;;4976200;28;19906;-86
2022/04/11 02:04:13;;;;;;;;;;;2.70;99.90;;;;;;4991992;28;20036;-85
2022/04/11 02:06:38;;;;;;;2.13;0.52;;;2.70;99.90;;;;;;4975795;28;19996;-86
2022/04/11 02:09:04;;;;;;;;;;;2.60;99.90;;;;;;4976267;28;20030;-86
2022/04/11 02:11:30;;;;;;;1.80;0.68;;;2.60;99.90;;;;;;4976067;28;19912;-85
2022/04/11 02:13:56;;;;;;;1.70;0.60;;;2.60;99.90;;;;;;4993422;28;20086;-85
2022/04/11 02:16:23;;;;;;;;;;;2.60;99.90;;;;;;4979487;28;20514;-86
2022/04/11 02:18:49;;;;;;;2.47;0.68;;;2.60;99.90;;;;;;4979670;28;19914;-86
2022/04/11 02:21:14;;;;;;;;;;;2.60;99.90;;;;;;4979728;28;20081;-86
2022/04/11 02:23:40;;;;;;;2.30;0.73;;;2.70;99.90;;;;;;4979295;28;19920;-85
2022/04/11 02:26:06;;;;;;;;;;;2.80;99.90;;;;;;4979907;28;20053;-86
2022/04/11 02:28:32;;;;;;;3.13;0.80;;;2.80;99.90;;;;;;4979200;28;19956;-86
2022/04/11 02:30:57;;;;;;;;;;;2.80;99.90;;;;;;4979612;28;20022;-85
2022/04/11 02:33:23;;;;;;;3.67;0.85;;;2.80;99.90;;;;;;4979201;28;19906;-85
2022/04/11 02:35:48;;;;;;;;;;;2.70;99.90;;;;;;4979721;28;20026;-85
2022/04/11 02:38:14;;;;;;;3.30;0.98;;;2.70;99.90;;;;;;4979275;28;19922;-84
2022/04/11 02:40:40;;;;;;;;;;;2.70;99.90;;;;;;4996763;28;20160;-85
2022/04/11 02:43:06;;;;;;;3.13;1.08;;;2.60;99.90;;;;;;4978829;28;19909;-85
2022/04/11 02:45:31;;;;;;;5.05;1.48;;;2.60;99.90;;;;;;4979163;28;20034;-85
2022/04/11 02:47:57;;;;;;;;;;;2.50;99.90;;;;;;4996649;28;20031;-85
2022/04/11 02:50:23;;;;;;;14.73;4.05;;;2.50;99.90;;;;;;4979025;28;19945;-84
2022/04/11 02:52:48;;;;;;;;;;;2.50;99.90;;;;;;4979207;28;20096;-85
2022/04/11 02:55:14;;;;;;;9.88;2.50;;;2.50;99.90;;;;;;4978852;28;19905;-85
2022/04/11 02:57:40;;;;;;;21.42;5.95;;;2.40;99.90;;;;;;4978538;28;20077;-86
2022/04/11 03:00:12;;;;;;;12.32;2.42;;;2.40;99.90;;;;;;4978585;28;20038;-85
2022/04/11 03:02:38;;;;;;;4.85;1.02;;;2.40;99.90;;;;;;4978584;28;20023;-85
2022/04/11 03:05:04;;;;;;;1.60;0.70;;;2.50;99.90;;;;;;4978379;28;20401;-85
2022/04/11 03:07:30;;;;;;;1.60;0.70;;;2.50;99.90;;;;;;4978693;28;20396;-86
2022/04/11 03:09:55;;;;;;;;;;;2.40;99.90;;;;;;4978870;28;20038;-86
2022/04/11 03:12:22;;;;;;;3.30;1.00;;;2.40;99.90;;;;;;4978456;28;20378;-86
2022/04/11 03:14:51;;;;;;;2.92;0.75;;;2.40;99.90;;;;;;4978490;28;20057;-86
2022/04/11 03:17:17;;;;;;;2.72;0.65;;;2.30;99.90;;;;;;4995704;28;20026;-86
2022/04/11 03:19:44;;;;;;;5.40;1.15;;;2.30;99.90;;;;;;4978335;28;20038;-85
2022/04/11 03:22:10;;;;;;;1.98;0.80;;;2.20;99.90;;;;;;4978280;28;20018;-85
2022/04/11 03:24:36;;;;;;;12.45;3.15;;;2.20;99.90;;;;;;4995987;28;20054;-86
2022/04/11 03:27:02;;;;;;;;;;;2.10;99.90;;;;;;4978316;28;20031;-86
2022/04/11 03:29:28;;;;;;;36.88;9.63;;;2.10;99.90;;;;;;4977425;28;20361;-86
2022/04/11 03:31:53;;;;;;;;;;;2.10;99.90;;;;;;4977297;28;20394;-86
2022/04/11 03:34:19;;;;;;;28.55;8.07;;;2.00;99.90;;;;;;4978245;28;19909;-85
2022/04/11 03:36:45;;;;;;;24.65;6.93;;;2.00;99.90;;;;;;4978348;28;20026;-86
2022/04/11 03:39:11;;;;;;;17.98;5.40;;;2.00;99.90;;;;;;4978017;28;20387;-86
2022/04/11 03:41:36;;;;;;;;;;;1.90;99.90;;;;;;4994896;28;20053;-87
2022/04/11 03:44:02;;;;;;;15.98;4.88;;;1.90;99.90;;;;;;4977894;28;19928;-86
2022/04/11 03:46:28;;;;;;;14.93;4.88;;;1.90;99.90;;;;;;4978105;28;20081;-86
2022/04/11 03:48:54;;;;;;;6.35;2.30;;;1.80;99.90;;;;;;4977589;28;20030;-86
2022/04/11 03:51:20;;;;;;;5.75;1.45;;;1.70;99.90;;;;;;4977166;28;20037;-86
2022/04/11 03:53:47;;;;;;;;;;;1.70;99.90;;;;;;4978308;28;20023;-85
2022/04/11 03:56:14;;;;;;;11.25;2.88;;;1.70;99.90;;;;;;4977503;28;19992;-84
2022/04/11 03:58:40;;;;;;;3.85;1.02;;;1.80;99.90;;;;;;4994555;28;20038;-85
2022/04/11 04:01:06;;;;;;;3.60;0.90;;;1.80;99.90;;;;;;4994639;28;20072;-85
2022/04/11 04:03:32;;;;;;;;;;;1.90;99.90;;;;;;4994551;28;20034;-85
2022/04/11 04:05:57;;;;;;;4.28;1.20;;;2.00;99.90;;;;;;4977140;28;20538;-85
2022/04/11 04:08:23;;;;;;;;;;;2.10;99.90;;;;;;4994883;28;20018;-85
2022/04/11 04:10:49;;;;;;;2.28;0.90;;;2.10;99.90;;;;;;4976817;28;19952;-85
2022/04/11 04:13:14;;;;;;;3.42;0.95;;;2.20;99.90;;;;;;4993132;28;20493;-85
2022/04/11 04:15:40;;;;;;;5.53;1.70;;;2.20;99.90;;;;;;4976868;28;20552;-85
2022/04/11 04:18:06;;;;;;;;;;;2.30;99.90;;;;;;4977743;28;20081;-85
2022/04/11 04:20:31;;;;;;;9.68;2.22;;;2.30;99.90;;;;;;4976982;28;20020;-85
2022/04/11 04:22:57;;;;;;;;;;;2.30;99.90;;;;;;4993785;28;20030;-85
2022/04/11 04:25:23;;;;;;;6.70;1.33;;;2.30;99.90;;;;;;4977090;28;19921;-85
2022/04/11 04:27:49;;;;;;;;;;;2.30;99.90;;;;;;4977327;28;20034;-86
2022/04/11 04:30:15;;;;;;;3.58;0.73;;;2.30;99.90;;;;;;4977251;28;19905;-85
2022/04/11 04:32:42;;;;;;;2.00;0.80;;;2.30;99.90;;;;;;4994202;28;20475;-85
2022/04/11 04:35:08;;;;;;;2.70;0.95;;;2.20;99.90;;;;;;4994291;28;20027;-85
2022/04/11 04:37:34;;;;;;;3.90;0.90;;;2.20;99.90;;;;;;4976371;28;20032;-85
2022/04/11 04:40:00;;;;;;;;;;;2.30;99.90;;;;;;4976822;28;20133;-85
2022/04/11 04:42:26;;;;;;;26.98;7.30;;;2.60;99.90;;;;;;4976732;28;20369;-85
2022/04/11 04:44:55;;;;;;;21.00;4.47;;;2.90;99.90;;;;;;4992664;28;20046;-85
2022/04/11 04:47:21;;;;;;;12.05;3.03;;;3.50;99.90;;;;;;4993993;28;20030;-85
2022/04/11 04:49:47;;;;;;;14.85;2.47;;;4.30;99.90;;;;;;4976532;28;20049;-83
2022/04/11 04:52:13;;;;;;;9.88;2.33;;;5.00;99.90;;;;;;4993873;28;20483;-86
2022/04/11 04:54:39;;;;;;;19.38;2.28;;;5.70;96.80;;;;;;4993926;28;20022;-85
2022/04/11 04:57:05;;;;;;;;;;;6.40;94.60;;;;;;4994303;28;20030;-85
2022/04/11 04:59:31;;;;;;;10.20;1.05;;;7.40;78.40;;;;;;4993512;28;20016;-86
2022/04/11 05:01:57;;;;;;;3.15;1.40;;;7.70;75.80;;;;;;4976515;28;20150;-85
2022/04/11 05:04:22;;;;;;;4.57;0.70;;;8.40;69.10;;;;;;4976298;28;20045;-86
2022/04/11 05:06:48;;;;;;;5.10;1.88;;;8.60;66.20;;;;;;4993980;28;20443;-86
2022/04/11 05:09:14;;;;;;;14.02;3.85;;;8.90;66.10;;;;;;4976185;28;20033;-86
2022/04/11 05:11:40;;;;;;;21.50;9.15;;;9.40;64.30;;;;;;4976485;28;20018;-86
2022/04/11 05:14:05;;;;;;;;;;;9.70;61.80;;;;;;4977089;28;20483;-85
2022/04/11 05:16:31;;;;;;;58.97;21.38;;;10.00;59.40;;;;;;4976219;28;19910;-87
2022/04/11 05:18:57;;;;;;;;;;;10.50;58.40;;;;;;4976695;28;20380;-86
2022/04/11 05:21:23;;;;;;;28.65;9.77;;;11.10;54.90;;;;;;4976421;28;20005;-87
2022/04/11 05:23:48;;;;;;;;;;;11.70;53.20;;;;;;4976877;28;20023;-87
2022/04/11 05:26:14;;;;;;;14.65;4.93;;;12.10;50.70;;;;;;4976372;28;19905;-87
2022/04/11 05:28:39;;;;;;;;;;;12.40;50.70;;;;;;4976799;28;20450;-86
2022/04/11 05:31:05;;;;;;;6.88;2.50;;;12.70;48.30;;;;;;4976260;28;19906;-88
2022/04/11 05:33:30;;;;;;;;;;;13.00;48.90;;;;;;4976574;28;20114;-87
2022/04/11 05:35:56;;;;;;;8.23;3.60;;;13.20;47.40;;;;;;4976501;28;19952;-87
2022/04/11 05:38:23;;;;;;;8.45;3.80;;;13.40;47.70;;;;;;4975624;28;20037;-87
2022/04/11 05:40:49;;;;;;;9.55;3.75;;;13.40;47.70;;;;;;4993097;28;20475;-87
2022/04/11 05:43:15;;;;;;;4.57;1.65;;;13.50;47.30;;;;;;4975360;28;20054;-86
2022/04/11 05:45:43;;;;;;;11.00;2.20;;;13.50;47.20;;;;;;4993451;28;20046;-87
2022/04/11 05:48:10;;;;;;;5.15;1.52;;;13.70;46.60;;;;;;4976090;28;20034;-87
2022/04/11 05:50:36;;;;;;;4.25;1.65;;;13.70;46.30;;;;;;4980890;28;20027;-88
2022/04/11 05:53:02;;;;;;;6.30;1.90;;;14.00;46.10;;;;;;4997297;28;20031;-88
2022/04/11 05:55:28;;;;;;;3.58;1.10;;;14.20;45.10;;;;;;4980146;28;20026;-88
2022/04/11 05:57:54;;;;;;;2.15;0.80;;;14.30;44.50;;;;;;4979614;28;20110;-89
2022/04/11 06:00:21;;;;;;;3.92;1.23;;;14.60;43.70;;;;;;4999002;28;20487;-88
2022/04/11 06:02:47;;;;;;;2.15;0.85;;;14.60;43.00;;;;;;4996073;28;20341;-90
2022/04/11 06:05:13;;;;;;;2.72;1.17;;;14.90;43.00;;;;;;4978889;28;20033;-89
2022/04/11 06:07:38;;;;;;;3.60;1.00;;;15.30;42.40;;;;;;4980023;28;20117;-89
2022/04/11 06:10:05;;;;;;;1.70;0.80;;;15.80;41.00;;;;;;4979696;28;20073;-89
2022/04/11 06:12:31;;;;;;;7.93;1.27;;;16.10;40.50;;;;;;4979933;28;20057;-90
2022/04/11 06:14:58;;;;;;;10.00;1.13;;;16.30;38.30;;;;;;4979667;28;20026;-89
2022/04/11 06:17:25;;;;;;;7.30;1.15;;;16.50;38.80;;;;;;4979737;28;20037;-89
2022/04/11 06:19:51;;;;;;;3.75;1.05;;;17.00;38.00;;;;;;4979842;28;20042;-90
2022/04/11 06:22:17;;;;;;;2.67;0.65;;;17.70;35.70;;;;;;4979421;28;20023;-89
2022/04/11 06:24:47;;;;;;;3.83;0.82;;;17.60;36.30;;;;;;4979306;28;20023;-89
2022/04/11 06:27:13;;;;;;;2.80;0.95;;;17.90;34.70;;;;;;4979420;28;20435;-89
2022/04/11 06:29:39;;;;;;;2.55;1.10;;;17.90;34.10;;;;;;4997017;28;20058;-90
2022/04/11 06:32:05;;;;;;;4.38;0.93;;;18.00;34.30;;;;;;4979669;28;20554;-89
2022/04/11 06:34:37;;;;;;;2.40;0.70;;;18.20;33.60;;;;;;4996735;28;20175;-90
2022/04/11 06:37:04;;;;;;;2.03;0.80;;;18.40;32.80;;;;;;4979263;28;20030;-88
2022/04/11 06:39:30;;;;;;;3.00;0.90;;;18.40;32.00;;;;;;4978981;28;20058;-89
2022/04/11 06:41:56;;;;;;;2.42;0.90;;;18.40;31.70;;;;;;4995415;28;20368;-89
2022/04/11 06:44:22;;;;;;;3.40;0.88;;;18.70;31.10;;;;;;4978984;28;20538;-89
2022/04/11 06:46:48;;;;;;;2.97;0.75;;;19.00;30.70;;;;;;4979153;28;20030;-90
2022/04/11 06:49:14;;;;;;;2.35;0.60;;;18.70;29.90;;;;;;4996571;28;20061;-89
2022/04/11 06:51:40;;;;;;;2.97;0.60;;;18.70;29.80;;;;;;4996533;28;20447;-89
2022/04/11 06:54:06;;;;;;;3.33;0.93;;;18.60;29.60;;;;;;4979204;28;20036;-88
2022/04/11 06:56:32;;;;;;;4.53;0.82;;;18.00;30.70;;;;;;4996062;28;20065;-88
2022/04/11 06:58:57;;;;;;;1.95;0.80;;;17.80;30.60;;;;;;4979468;28;20375;-89
2022/04/11 07:01:23;;;;;;;8.80;1.02;;;17.50;30.80;;;;;;4995830;28;20076;-89
2022/04/11 07:03:50;;;;;;;3.30;0.82;;;17.90;30.10;;;;;;4979107;28;20030;-89
2022/04/11 07:06:15;;;;;;;1.73;0.60;;;17.90;29.40;;;;;;4996137;28;20022;-89
2022/04/11 07:08:41;;;;;;;3.55;0.70;;;18.10;29.10;;;;;;4978632;28;20030;-88
2022/04/11 07:11:07;;;;;;;1.92;1.00;;;17.70;28.20;;;;;;4995614;28;20023;-88
2022/04/11 07:13:34;;;;;;;4.75;1.17;;;17.20;29.10;;;;;;4978512;28;20034;-87
2022/04/11 07:16:00;;;;;;;3.08;0.60;;;16.40;29.90;;;;;;4978856;28;20065;-89
2022/04/11 07:18:27;;;;;;;3.25;0.80;;;16.00;30.00;;;;;;4978832;28;20069;-88
2022/04/11 07:20:53;;;;;;;2.60;0.93;;;15.60;31.20;;;;;;4978473;28;20041;-88
2022/04/11 07:23:19;;;;;;;2.15;0.82;;;15.50;31.10;;;;;;4979809;28;20053;-88
2022/04/11 07:25:45;;;;;;;2.38;0.57;;;15.20;31.80;;;;;;4995654;28;20494;-88
2022/04/11 07:28:11;;;;;;;2.50;0.60;;;15.60;32.60;;;;;;4978415;28;20037;-88
2022/04/11 07:30:37;;;;;;;2.42;0.80;;;16.30;31.20;;;;;;4978118;28;20028;-87
2022/04/11 07:33:03;;;;;;;2.30;0.75;;;17.00;30.60;;;;;;4978311;28;20117;-89
2022/04/11 07:35:29;;;;;;;1.58;0.63;;;17.90;29.30;;;;;;4995877;28;20094;-89
2022/04/11 07:37:57;;;;;;;2.05;0.70;;;18.50;28.90;;;;;;4995280;28;20546;-89
2022/04/11 07:40:24;;;;;;;2.92;0.73;;;18.80;28.50;;;;;;4995684;28;20065;-89
2022/04/11 07:42:51;;;;;;;1.38;0.50;;;19.40;26.90;;;;;;4977910;28;20026;-89
2022/04/11 07:45:18;;;;;;;3.13;1.35;;;19.50;27.20;;;;;;4978209;28;20037;-89
2022/04/11 07:47:44;;;;;;;3.53;0.90;;;19.90;26.40;;;;;;4978068;28;20089;-89
2022/04/11 07:50:10;;;;;;;2.15;0.75;;;20.30;26.30;;;;;;4994175;28;20027;-89
2022/04/11 07:52:39;;;;;;;4.43;0.50;;;21.30;25.30;;;;;;4978458;28;20026;-86
2022/04/11 07:55:07;;;;;;;3.92;0.80;;;21.80;24.80;;;;;;4977731;28;20029;-87
2022/04/11 07:57:33;;;;;;;2.00;0.80;;;21.90;24.60;;;;;;4978140;28;20053;-89
2022/04/11 07:59:59;;;;;;;1.55;0.68;;;22.00;26.30;;;;;;4977727;28;20030;-87
2022/04/11 08:02:25;;;;;;;1.92;0.70;;;22.30;24.00;;;;;;4977898;28;20030;-89
2022/04/11 08:04:51;;;;;;;2.05;0.60;;;22.60;24.70;;;;;;4977630;28;20641;-88
2022/04/11 08:07:17;;;;;;;2.90;0.93;;;22.70;22.80;;;;;;4994875;28;20022;-87
2022/04/11 08:09:43;;;;;;;4.00;0.82;;;22.60;22.30;;;;;;4995125;28;20045;-87
2022/04/11 08:12:09;;;;;;;1.70;0.65;;;22.00;22.10;;;;;;4977777;28;20034;-88
2022/04/11 08:14:35;;;;;;;1.85;0.40;;;21.70;23.60;;;;;;4994631;28;20037;-87
2022/04/11 08:17:02;;;;;;;3.15;0.73;;;21.50;22.40;;;;;;4994759;28;20097;-87
2022/04/11 08:19:32;;;;;;;1.33;0.57;;;21.80;23.00;;;;;;4994893;28;20402;-87
2022/04/11 08:21:58;;;;;;;3.90;0.70;;;22.20;22.10;;;;;;4977666;28;20025;-88
2022/04/11 08:24:24;;;;;;;2.30;0.70;;;21.90;22.70;;;;;;4977385;28;20038;-87
2022/04/11 08:26:49;;;;;;;1.65;0.55;;;22.20;21.80;;;;;;4977508;28;20048;-86
2022/04/11 08:29:17;;;;;;;3.05;0.57;;;22.30;21.50;;;;;;4977458;28;20035;-87
2022/04/11 08:31:43;;;;;;;1.77;0.60;;;22.50;21.20;;;;;;4977468;28;20029;-87
2022/04/11 08:34:09;;;;;;;1.45;0.50;;;22.60;20.80;;;;;;4976157;28;20034;-87
2022/04/11 08:36:34;;;;;;;1.90;0.55;;;22.60;21.10;;;;;;4976289;28;20490;-87
2022/04/11 08:39:00;;;;;;;1.52;0.52;;;21.60;21.30;;;;;;4977034;28;20057;-87
2022/04/11 08:41:32;;;;;;;1.75;0.40;;;20.70;22.40;;;;;;4977243;28;20379;-87
2022/04/11 08:44:00;;;;;;;3.20;0.90;;;20.30;23.80;;;;;;4994399;28;20133;-87
2022/04/11 08:46:27;;;;;;;1.15;0.50;;;20.60;23.50;;;;;;4977808;28;20038;-88
2022/04/11 08:48:53;;;;;;;5.40;0.60;;;20.90;23.40;;;;;;4976878;28;20581;-87
2022/04/11 08:51:19;;;;;;;2.03;1.02;;;21.20;23.40;;;;;;4977030;28;20026;-87
2022/04/11 08:53:45;;;;;;;1.85;0.60;;;21.30;23.70;;;;;;4976759;28;20030;-87
2022/04/11 08:56:11;;;;;;;1.30;0.40;;;20.10;22.30;;;;;;4977507;28;20058;-87
2022/04/11 08:58:36;;;;;;;1.60;0.50;;;19.80;22.60;;;;;;4993767;28;20092;-86
2022/04/11 09:01:02;;;;;;;3.10;0.60;;;18.80;21.10;;;;;;4994578;28;20034;-86
2022/04/11 09:03:28;;;;;;;1.77;0.40;;;18.50;22.20;;;;;;4993952;28;20026;-87
2022/04/11 09:06:10;;;;;;;2.53;0.60;;;18.60;21.70;;;;;;4977109;28;20026;-87
2022/04/11 09:08:49;;;;;;;3.95;1.80;;;18.70;21.80;;;;;;4976368;28;20061;-87
2022/04/11 09:11:26;;;;;;;3.90;0.47;;;18.80;21.60;;;;;;4976901;28;20077;-86
2022/04/11 09:13:53;;;;;;;1.08;0.40;;;18.60;22.20;;;;;;4993864;28;20029;-87
2022/04/11 09:16:19;;;;;;;2.20;0.55;;;18.60;21.70;;;;;;4976655;28;20030;-87
2022/04/11 09:18:49;;;;;;;1.77;0.45;;;18.70;22.60;;;;;;4976637;28;20026;-86
2022/04/11 09:21:16;;;;;;;4.13;1.08;;;19.80;22.10;;;;;;4976450;28;20032;-87
2022/04/11 09:23:42;;;;;;;1.38;0.52;;;20.30;22.10;;;;;;4993698;28;20038;-87
2022/04/11 09:26:16;;;;;;;1.75;0.60;;;21.00;22.50;;;;;;4993657;28;20109;-87
2022/04/11 09:28:41;;;;;;;7.22;0.80;;;20.60;20.40;;;;;;4976321;28;20466;-87
2022/04/11 09:31:07;;;;;;;1.08;0.50;;;19.60;21.40;;;;;;4976602;28;20050;-87
2022/04/11 09:33:39;;;;;;;3.70;0.70;;;19.50;22.30;;;;;;4993832;28;20062;-86
2022/04/11 09:36:05;;;;;;;3.70;0.50;;;18.80;22.40;;;;;;4993781;28;20026;-86
2022/04/11 09:38:39;;;;;;;1.80;0.70;;;17.40;23.30;;;;;;4976238;28;20125;-87
2022/04/11 09:41:06;;;;;;;1.15;0.40;;;16.80;24.60;;;;;;4976187;28;20116;-86
2022/04/11 09:43:33;;;;;;;1.63;0.50;;;17.30;24.90;;;;;;4993542;28;20458;-87
2022/04/11 09:46:02;;;;;;;2.30;0.88;;;18.20;24.70;;;;;;4976464;28;20101;-87
2022/04/11 09:48:37;;;;;;;2.58;0.55;;;18.80;23.40;;;;;;4976329;28;20431;-88
2022/04/11 09:51:10;;;;;;;3.17;0.40;;;19.10;23.70;;;;;;4993406;28;20022;-86
2022/04/11 09:53:36;;;;;;;1.55;0.45;;;18.70;23.60;;;;;;4993775;28;20387;-87
2022/04/11 09:56:04;;;;;;;6.40;0.50;;;18.00;24.10;;;;;;4976253;28;20104;-84
2022/04/11 09:58:33;;;;;;;1.67;0.40;;;17.40;24.80;;;;;;4975823;28;20157;-87
2022/04/11 10:01:01;;;;;;;1.85;0.38;;;17.30;25.50;;;;;;4994022;28;20026;-86
2022/04/11 10:03:29;;;;;;;0.70;0.30;;;17.30;24.90;;;;;;4975822;28;20045;-86
2022/04/11 10:05:56;;;;;;;3.20;0.50;;;16.80;24.50;;;;;;4976054;28;20033;-87
2022/04/11 10:08:26;;;;;;;2.35;0.47;;;16.30;24.80;;;;;;4976137;28;20040;-86
2022/04/11 10:10:54;;;;;;;0.95;0.45;;;16.20;26.40;;;;;;4976040;28;20026;-87
2022/04/11 10:13:19;;;;;;;2.28;0.55;;;16.90;26.70;;;;;;4975897;28;20027;-87
2022/04/11 10:15:47;;;;;;;0.73;0.30;;;17.70;25.50;;;;;;4976122;28;20037;-86
2022/04/11 10:18:16;;;;;;;0.77;0.32;;;17.80;24.20;;;;;;4975979;28;20034;-87
2022/04/11 10:20:51;;;;;;;1.13;0.40;;;17.50;23.90;;;;;;4976007;28;20030;-86
2022/04/11 10:23:45;;;;;;;1.23;0.32;;;16.90;24.50;;;;;;4975889;28;20096;-86
2022/04/11 10:26:16;;;;;;;2.38;0.65;;;16.60;24.60;;;;;;4941659;28;20137;-86
2022/04/11 10:28:47;;;;;;;0.57;0.30;;;16.50;25.40;;;;;;4992612;28;20050;-86
2022/04/11 10:31:14;;;;;;;2.17;0.45;;;16.30;25.50;;;;;;4974918;28;20061;-86
2022/04/11 10:33:44;;;;;;;1.27;0.40;;;16.20;25.20;;;;;;4974941;28;20049;-88
2022/04/11 10:36:29;;;;;;;2.45;0.40;;;16.10;26.10;;;;;;4976009;28;20568;-87
2022/04/11 10:39:13;;;;;;;1.30;0.40;;;16.10;25.80;;;;;;4979123;28;20390;-88
2022/04/11 10:41:57;;;;;;;1.75;0.60;;;16.10;26.20;;;;;;4979379;28;20029;-87
2022/04/11 10:44:35;;;;;;;1.90;0.70;;;15.90;26.20;;;;;;4978861;28;20050;-87
2022/04/11 10:47:10;;;;;;;1.60;0.52;;;16.00;25.90;;;;;;4979187;28;20079;-88
2022/04/11 10:49:44;;;;;;;3.83;0.80;;;15.90;25.40;;;;;;4996451;28;20043;-88
2022/04/11 10:52:41;;;;;;;1.35;0.60;;;15.60;23.80;;;;;;4996478;28;20382;-86
2022/04/11 10:55:25;;;;;;;1.52;0.60;;;15.20;25.10;;;;;;4996521;28;20030;-85
2022/04/11 10:57:56;;;;;;;1.13;0.40;;;15.20;26.40;;;;;;4979217;28;20026;-88
2022/04/11 11:00:29;;;;;;;2.67;0.50;;;15.30;27.20;;;;;;4978651;28;20552;-87
2022/04/11 11:03:01;;;;;;;4.78;0.60;;;15.50;27.50;;;;;;4977935;28;20035;-87
2022/04/11 11:05:29;;;;;;;1.92;0.55;;;15.60;26.50;;;;;;4977487;28;20034;-87
2022/04/11 11:08:09;;;;;;;2.30;0.70;;;15.40;25.00;;;;;;4994845;28;20095;-89
2022/04/11 11:10:59;;;;;;;3.30;1.20;;;15.50;25.60;;;;;;4978489;28;20113;-88
2022/04/11 11:13:39;;;;;;;3.58;1.00;;;15.30;26.00;;;;;;4978631;28;20037;-89
2022/04/11 11:16:08;;;;;;;2.85;0.93;;;15.50;26.70;;;;;;4978586;28;20026;-87
2022/04/11 11:18:48;;;;;;;7.35;1.65;;;15.70;27.20;;;;;;4978653;28;20034;-87
2022/04/11 11:21:43;;;;;;;4.72;0.70;;;15.60;27.70;;;;;;4978239;28;20026;-86
2022/04/11 11:24:13;;;;;;;9.80;4.20;;;15.00;28.30;;;;;;4995798;28;20041;-87
2022/04/11 11:26:53;;;;;;;6.38;2.40;;;14.90;28.00;;;;;;4977675;28;20025;-87
2022/04/11 11:29:24;;;;;;;8.95;1.00;;;14.40;27.90;;;;;;4995472;28;20049;-88
2022/04/11 11:31:59;;;;;;;4.70;0.98;;;13.80;28.60;;;;;;4978119;28;20534;-86
2022/04/11 11:34:26;;;;;;;3.70;1.00;;;13.30;29.50;;;;;;4995559;28;20049;-87
2022/04/11 11:37:03;;;;;;;6.38;2.88;;;13.10;29.60;;;;;;4978002;28;20086;-88
2022/04/11 11:39:31;;;;;;;6.97;2.58;;;13.10;31.00;;;;;;4990851;28;20411;-88
2022/04/11 11:42:05;;;;;;;4.78;2.00;;;13.20;30.90;;;;;;4978149;28;20109;-87
2022/04/11 11:44:31;;;;;;;4.80;2.13;;;13.40;29.60;;;;;;4976873;28;20058;-87
2022/04/11 11:47:02;;;;;;;2.00;0.80;;;13.50;30.20;;;;;;4977735;28;20105;-86
2022/04/11 11:49:40;;;;;;;3.42;0.77;;;13.40;30.70;;;;;;4977758;28;20391;-88
2022/04/11 11:52:14;;;;;;;1.58;0.38;;;13.30;30.60;;;;;;4978017;28;20030;-87
2022/04/11 11:54:42;;;;;;;0.68;0.40;;;13.10;32.10;;;;;;4977832;28;20057;-88
2022/04/11 11:57:14;;;;;;;2.30;0.43;;;13.00;32.20;;;;;;4977865;28;20026;-88
2022/04/11 12:00:07;;;;;;;1.25;0.35;;;12.90;32.80;;;;;;4995367;28;20022;-88
2022/04/11 12:05:26;;;;;;;1.40;0.30;;;12.90;33.40;;;;;;4994640;28;20096;-86
2022/04/11 12:08:14;;;;;;;2.13;0.38;;;12.90;32.80;;;;;;4977567;28;20113;-88
2022/04/11 12:10:44;;;;;;;2.40;0.50;;;13.10;32.90;;;;;;4977669;28;20031;-88
2022/04/11 12:13:19;;;;;;;1.02;0.38;;;13.10;32.50;;;;;;4977614;28;20030;-88
2022/04/11 12:15:45;;;;;;;2.17;0.95;;;13.20;32.60;;;;;;4977704;28;20022;-87
2022/04/11 12:18:12;;;;;;;;;;;13.40;33.10;;;;;;4977990;28;20665;-88
2022/04/11 12:20:38;;;;;;;3.28;1.58;;;13.50;33.30;;;;;;4994454;28;20374;-87
2022/04/11 12:23:05;;;;;;;;;;;13.70;33.70;;;;;;4977751;28;20359;-88
2022/04/11 12:25:35;;;;;;;;;;;13.70;33.00;;;;;;4977544;28;20001;-87
2022/04/11 12:28:16;;;;;;;2.65;0.60;;;13.70;32.50;;;;;;4977442;28;19905;-88
2022/04/11 12:30:47;;;;;;;4.50;0.75;;;13.60;32.80;;;;;;4977308;28;20034;-87
2022/04/11 12:33:34;;;;;;;4.38;1.00;;;13.50;33.10;;;;;;4977394;28;20450;-86
2022/04/11 12:36:16;;;;;;;2.30;0.60;;;13.60;33.20;;;;;;4994992;28;20026;-87
2022/04/11 12:38:53;;;;;;;3.08;0.70;;;13.50;32.40;;;;;;4977108;28;20113;-87
2022/04/11 12:41:32;;;;;;;9.48;4.40;;;13.50;34.40;;;;;;4993117;28;20648;-85
2022/04/11 12:44:07;;;;;;;10.45;4.70;;;13.40;33.80;;;;;;4992344;28;20053;-86
2022/04/11 12:46:43;;;;;;;2.47;1.00;;;13.40;34.30;;;;;;4976840;28;20030;-85
2022/04/11 12:49:11;;;;;;;5.15;2.30;;;13.30;33.40;;;;;;4976822;28;20038;-87
2022/04/11 12:51:39;;;;;;;3.38;1.10;;;13.20;34.50;;;;;;4994139;28;20031;-88
2022/04/11 12:54:09;;;;;;;3.53;0.70;;;13.20;34.60;;;;;;4976901;28;20037;-88
2022/04/11 12:56:42;;;;;;;2.05;0.60;;;13.30;33.90;;;;;;4976710;28;20030;-86
2022/04/11 12:59:09;;;;;;;2.67;1.00;;;13.50;34.40;;;;;;4975994;28;20617;-85
2022/04/11 13:01:50;;;;;;;2.53;0.70;;;13.60;34.20;;;;;;4976718;28;20018;-86
2022/04/11 13:04:17;;;;;;;2.85;0.90;;;13.90;33.40;;;;;;4976664;28;20033;-86
2022/04/11 13:06:42;;;;;;;1.20;0.60;;;14.20;32.20;;;;;;4993846;28;20030;-86
2022/04/11 13:09:08;;;;;;;;;;;14.30;31.30;;;;;;4976854;28;20042;-85
2022/04/11 13:11:44;;;;;;;1.60;0.50;;;14.40;31.60;;;;;;4976683;28;19905;-86